createdAt,value
2019-05-03T00:02:12.338Z,23.20
2019-05-03T00:04:42.330Z,23.13
2019-05-03T00:07:11.800Z,23.70
2019-05-03T00:09:42.506Z,23.23
2019-05-03T00:12:12.434Z,23.00
2019-05-03T00:14:42.494Z,21.93
2019-05-03T00:17:11.742Z,22.13
2019-05-03T00:19:42.087Z,22.63
2019-05-03T00:22:12.242Z,21.90
2019-05-03T00:24:42.454Z,22.13
2019-05-03T00:27:12.494Z,22.20
2019-05-03T00:29:41.773Z,21.70
2019-05-03T00:32:12.291Z,24.13
2019-05-03T00:34:46.578Z,23.27
2019-05-03T00:37:16.720Z,21.90
2019-05-03T00:40:02.764Z,23.57
2019-05-03T00:42:31.792Z,24.80
2019-05-03T00:45:02.287Z,23.13
2019-05-03T00:47:32.706Z,25.90
2019-05-03T00:50:02.817Z,23.63
2019-05-03T00:52:31.911Z,24.20
2019-05-03T00:55:02.236Z,23.10
2019-05-03T00:57:32.382Z,24.50
2019-05-03T01:00:02.091Z,23.60
2019-05-03T01:02:31.809Z,26.80
2019-05-03T01:05:02.663Z,24.27
2019-05-03T01:07:31.909Z,25.23
2019-05-03T01:10:02.566Z,24.40
2019-05-03T01:12:32.337Z,24.10
2019-05-03T01:15:02.777Z,24.77
2019-05-03T01:17:32.056Z,25.77
2019-05-03T01:20:02.542Z,26.00
2019-05-03T01:22:32.179Z,25.33
2019-05-03T01:25:02.855Z,23.73
2019-05-03T01:27:32.659Z,26.10
2019-05-03T01:30:02.890Z,24.80
2019-05-03T01:32:32.870Z,24.77
2019-05-03T01:35:03.131Z,25.27
2019-05-03T01:37:31.961Z,24.70
2019-05-03T01:40:02.362Z,24.03
2019-05-03T01:42:32.178Z,25.77
2019-05-03T01:45:01.757Z,24.47
2019-05-03T01:47:41.947Z,23.43
2019-05-03T01:50:15.012Z,22.87
2019-05-03T01:52:45.108Z,23.50
2019-05-03T01:55:15.848Z,24.27
2019-05-03T01:57:43.816Z,24.17
2019-05-03T02:00:14.527Z,23.57
2019-05-03T02:02:53.664Z,24.47
2019-05-03T02:05:39.739Z,22.53
2019-05-03T02:08:09.717Z,23.03
2019-05-03T02:10:38.153Z,24.33
2019-05-03T02:13:06.656Z,24.23
2019-05-03T02:15:35.074Z,24.03
2019-05-03T02:18:03.508Z,22.90
2019-05-03T02:20:32.377Z,23.40
2019-05-03T02:23:02.667Z,22.60
2019-05-03T02:25:32.358Z,23.47
2019-05-03T02:28:01.963Z,23.50
2019-05-03T02:30:33.132Z,24.10
2019-05-03T02:33:03.723Z,23.40
2019-05-03T02:35:33.175Z,22.97
2019-05-03T02:38:03.510Z,22.10
2019-05-03T02:40:33.837Z,23.00
2019-05-03T02:43:06.405Z,23.37
2019-05-03T02:45:36.970Z,23.00
2019-05-03T02:48:09.974Z,22.73
2019-05-03T02:50:38.481Z,23.80
2019-05-03T02:53:06.903Z,23.13
2019-05-03T02:55:36.433Z,24.43
2019-05-03T02:58:05.756Z,23.37
2019-05-03T03:00:59.835Z,23.10
2019-05-03T03:03:29.306Z,23.27
2019-05-03T03:05:59.380Z,23.10
2019-05-03T03:08:33.024Z,24.00
2019-05-03T03:11:06.297Z,20.30
2019-05-03T03:13:37.072Z,22.67
2019-05-03T03:16:08.697Z,21.43
2019-05-03T03:18:39.843Z,22.67
2019-05-03T03:21:12.029Z,22.83
2019-05-03T03:23:58.418Z,23.50
2019-05-03T03:26:37.710Z,22.50
2019-05-03T03:29:07.883Z,22.27
2019-05-03T03:31:39.457Z,22.40
2019-05-03T03:34:10.464Z,22.23
2019-05-03T03:36:59.284Z,23.83
2019-05-03T03:39:18.024Z,24.10
2019-05-03T03:41:47.635Z,23.83
2019-05-03T03:44:18.991Z,25.03
2019-05-03T03:46:49.285Z,26.00
2019-05-03T03:49:19.941Z,24.97
2019-05-03T03:51:53.150Z,25.97
2019-05-03T03:54:22.317Z,24.60
2019-05-03T03:57:03.247Z,28.20
2019-05-03T03:59:26.915Z,26.53
2019-05-03T04:01:55.897Z,28.93
2019-05-03T04:04:26.175Z,28.20
2019-05-03T04:06:58.594Z,26.70
2019-05-03T04:09:25.791Z,28.57
2019-05-03T04:11:56.855Z,26.27
2019-05-03T04:14:27.256Z,28.60
2019-05-03T04:17:15.108Z,28.07
2019-05-03T04:19:47.879Z,27.83
2019-05-03T04:22:16.625Z,28.13
2019-05-03T04:24:45.966Z,26.30
2019-05-03T04:27:22.231Z,27.77
2019-05-03T04:29:45.478Z,25.73
2019-05-03T04:32:15.757Z,26.40
2019-05-03T04:34:45.376Z,26.80
2019-05-03T04:37:16.135Z,26.47
2019-05-03T04:39:45.655Z,26.13
2019-05-03T04:42:16.543Z,26.73
2019-05-03T04:44:45.566Z,25.13
2019-05-03T04:47:15.771Z,28.67
2019-05-03T04:49:46.277Z,26.53
2019-05-03T04:52:16.541Z,28.60
2019-05-03T04:54:46.328Z,26.70
2019-05-03T04:57:16.035Z,27.63
2019-05-03T04:59:45.281Z,27.40
2019-05-03T05:02:15.988Z,26.87
2019-05-03T05:04:46.358Z,26.80
2019-05-03T05:07:15.500Z,26.23
2019-05-03T05:09:45.633Z,27.80
2019-05-03T05:12:16.273Z,28.40
2019-05-03T05:14:45.662Z,27.27
2019-05-03T05:17:16.549Z,25.00
2019-05-03T05:19:49.618Z,27.97
2019-05-03T05:22:19.689Z,27.27
2019-05-03T05:24:48.404Z,26.10
2019-05-03T05:27:21.153Z,27.67
2019-05-03T05:29:49.597Z,24.80
2019-05-03T05:32:18.013Z,26.70
2019-05-03T05:34:46.473Z,23.63
2019-05-03T05:37:14.899Z,25.83
2019-05-03T05:39:44.712Z,24.60
2019-05-03T05:42:14.929Z,23.53
2019-05-03T05:44:45.264Z,20.37
2019-05-03T05:47:27.461Z,19.23
2019-05-03T05:50:04.876Z,18.40
2019-05-03T05:52:34.650Z,18.63
2019-05-03T05:55:25.162Z,19.60
2019-05-03T05:58:10.001Z,18.83
2019-05-03T06:00:40.072Z,18.17
2019-05-03T06:03:08.502Z,16.87
2019-05-03T06:05:36.938Z,18.47
2019-05-03T06:08:09.997Z,18.30
2019-05-03T06:10:40.055Z,18.33
2019-05-03T06:13:23.434Z,17.23
2019-05-03T06:15:54.797Z,18.27
2019-05-03T06:18:41.536Z,18.90
2019-05-03T06:21:11.627Z,19.57
2019-05-03T06:23:41.761Z,18.50
2019-05-03T06:26:27.701Z,18.20
2019-05-03T06:28:56.701Z,19.53
2019-05-03T06:31:29.616Z,20.50
2019-05-03T06:33:58.064Z,20.40
2019-05-03T06:36:26.508Z,17.00
2019-05-03T06:38:54.944Z,16.63
2019-05-03T06:41:25.045Z,18.20
2019-05-03T06:43:55.224Z,15.60
2019-05-03T06:46:41.765Z,15.90
2019-05-03T06:49:10.198Z,13.93
2019-05-03T06:51:40.024Z,16.17
2019-05-03T06:54:08.791Z,14.40
2019-05-03T06:56:37.557Z,12.10
2019-05-03T06:59:07.958Z,13.87
2019-05-03T07:01:50.188Z,11.57
2019-05-03T07:04:24.519Z,11.70
2019-05-03T07:07:11.098Z,12.97
2019-05-03T07:09:41.179Z,12.20
2019-05-03T07:12:10.083Z,13.47
2019-05-03T07:14:38.532Z,12.10
2019-05-03T07:17:06.946Z,11.50
2019-05-03T07:19:35.626Z,10.57
2019-05-03T07:22:04.999Z,10.30
2019-05-03T07:24:38.769Z,9.30
2019-05-03T07:27:05.419Z,8.97
2019-05-03T07:29:36.371Z,9.33
2019-05-03T07:32:05.182Z,9.90
2019-05-03T07:34:35.215Z,9.30
2019-05-03T07:37:05.737Z,8.27
2019-05-03T07:39:34.968Z,7.90
2019-05-03T07:42:05.432Z,9.10
2019-05-03T07:44:34.738Z,9.37
2019-05-03T07:47:04.772Z,8.50
2019-05-03T07:49:35.509Z,10.17
2019-05-03T07:52:05.631Z,11.40
2019-05-03T07:54:34.839Z,10.73
2019-05-03T07:57:05.251Z,9.90
2019-05-03T07:59:35.572Z,11.20
2019-05-03T08:02:05.525Z,12.10
2019-05-03T08:04:35.805Z,12.13
2019-05-03T08:07:04.697Z,11.50
2019-05-03T08:09:34.980Z,11.03
2019-05-03T08:12:05.154Z,11.83
2019-05-03T08:14:35.488Z,12.80
2019-05-03T08:17:05.060Z,12.83
2019-05-03T08:19:35.517Z,11.13
2019-05-03T08:22:04.843Z,13.57
2019-05-03T08:24:34.545Z,14.13
2019-05-03T08:27:04.995Z,11.37
2019-05-03T08:29:35.158Z,12.30
2019-05-03T08:32:24.581Z,11.17
2019-05-03T08:35:12.436Z,12.00
2019-05-03T08:37:42.505Z,11.80
2019-05-03T08:40:11.554Z,12.23
2019-05-03T08:42:39.982Z,11.10
2019-05-03T08:45:08.521Z,10.60
2019-05-03T08:47:37.012Z,10.00
2019-05-03T08:50:06.979Z,10.77
2019-05-03T08:52:35.579Z,11.50
2019-05-03T08:55:05.293Z,11.17
2019-05-03T08:57:35.423Z,10.10
2019-05-03T09:00:07.412Z,11.20
2019-05-03T09:02:35.832Z,10.73
2019-05-03T09:05:06.515Z,9.90
2019-05-03T09:07:35.518Z,9.73
2019-05-03T09:10:12.274Z,9.40
2019-05-03T09:12:56.048Z,10.60
2019-05-03T09:15:25.195Z,10.47
2019-05-03T09:17:55.260Z,9.60
2019-05-03T09:20:25.084Z,11.43
2019-05-03T09:22:54.944Z,11.80
2019-05-03T09:25:24.759Z,10.40
2019-05-03T09:27:55.233Z,11.80
2019-05-03T09:30:25.130Z,10.30
2019-05-03T09:32:55.129Z,9.27
2019-05-03T09:35:30.582Z,9.97
2019-05-03T09:37:55.568Z,10.60
2019-05-03T09:40:24.668Z,10.00
2019-05-03T09:42:55.086Z,10.23
2019-05-03T09:45:24.615Z,10.70
2019-05-03T09:47:55.085Z,9.77
2019-05-03T09:50:24.685Z,10.10
2019-05-03T09:52:55.451Z,10.87
2019-05-03T09:55:25.400Z,12.20
2019-05-03T09:57:55.522Z,11.87
2019-05-03T10:00:24.619Z,11.80
2019-05-03T10:02:54.838Z,10.83
2019-05-03T10:05:25.569Z,11.50
2019-05-03T10:07:53.816Z,9.03
2019-05-03T10:10:24.684Z,8.30
2019-05-03T10:12:52.450Z,7.83
2019-05-03T10:15:33.107Z,5.83
2019-05-03T10:18:01.544Z,5.80
2019-05-03T10:20:30.050Z,5.50
2019-05-03T10:23:00.111Z,5.00
2019-05-03T10:25:28.596Z,4.77
2019-05-03T10:27:57.039Z,5.30
2019-05-03T10:30:26.801Z,4.80
2019-05-03T10:33:15.616Z,4.27
2019-05-03T10:35:45.109Z,5.50
2019-05-03T10:38:15.154Z,5.50
2019-05-03T10:40:45.263Z,4.87
2019-05-03T10:43:13.960Z,5.37
2019-05-03T10:45:42.368Z,4.90
2019-05-03T10:48:10.937Z,5.10
2019-05-03T10:50:40.283Z,5.93
2019-05-03T10:53:10.476Z,5.30
2019-05-03T10:55:39.132Z,5.47
2019-05-03T10:58:19.944Z,5.20
2019-05-03T11:00:53.228Z,5.20
2019-05-03T11:03:20.148Z,6.00
2019-05-03T11:05:48.604Z,5.40
2019-05-03T11:08:17.085Z,5.13
2019-05-03T11:10:45.578Z,4.73
2019-05-03T11:13:15.459Z,5.83
2019-05-03T11:15:44.413Z,5.90
2019-05-03T11:18:14.744Z,6.30
2019-05-03T11:20:45.136Z,5.47
2019-05-03T11:23:14.630Z,5.77
2019-05-03T11:25:45.021Z,6.33
2019-05-03T11:28:24.970Z,6.37
2019-05-03T11:31:01.380Z,6.60
2019-05-03T11:33:31.546Z,7.77
2019-05-03T11:36:01.623Z,6.17
2019-05-03T11:38:34.942Z,5.97
2019-05-03T11:41:04.889Z,6.40
2019-05-03T11:43:35.000Z,6.37
2019-05-03T11:46:03.655Z,5.37
2019-05-03T11:48:32.074Z,5.77
2019-05-03T11:51:00.524Z,6.23
2019-05-03T11:53:28.933Z,6.00
2019-05-03T11:55:57.413Z,6.40
2019-05-03T11:58:27.343Z,6.17
2019-05-03T12:01:13.071Z,5.50
2019-05-03T12:03:38.079Z,6.47
2019-05-03T12:06:06.630Z,5.70
2019-05-03T12:08:35.137Z,5.50
2019-05-03T12:11:05.591Z,5.43
2019-05-03T12:13:33.918Z,5.40
2019-05-03T12:16:11.706Z,4.50
2019-05-03T12:18:48.027Z,4.63
2019-05-03T12:21:05.245Z,5.30
2019-05-03T12:23:36.292Z,5.40
2019-05-03T12:26:09.733Z,5.37
2019-05-03T12:28:35.281Z,5.57
2019-05-03T12:31:04.930Z,5.00
2019-05-03T12:33:35.385Z,5.23
2019-05-03T12:36:05.333Z,5.73
2019-05-03T12:38:34.933Z,4.93
2019-05-03T12:41:05.520Z,5.30
2019-05-03T12:43:33.920Z,5.80
2019-05-03T12:46:02.406Z,5.40
2019-05-03T12:48:30.903Z,5.57
2019-05-03T12:50:59.841Z,5.40
2019-05-03T12:53:28.400Z,5.97
2019-05-03T12:55:56.883Z,4.70
2019-05-03T12:58:26.991Z,4.63
2019-05-03T13:00:59.984Z,5.50
2019-05-03T13:03:30.133Z,5.63
2019-05-03T13:05:58.549Z,5.70
2019-05-03T13:08:31.745Z,5.27
2019-05-03T13:11:00.252Z,5.30
2019-05-03T13:13:28.712Z,4.70
2019-05-03T13:15:57.177Z,4.67
2019-05-03T13:18:25.656Z,5.03
2019-05-03T13:20:55.860Z,5.30
2019-05-03T13:23:25.391Z,4.87
2019-05-03T13:25:54.021Z,5.63
2019-05-03T13:28:22.491Z,5.20
2019-05-03T13:30:50.924Z,4.40
2019-05-03T13:33:19.477Z,3.80
2019-05-03T13:35:47.933Z,4.47
2019-05-03T13:38:16.374Z,4.20
2019-05-03T13:40:45.485Z,4.43
2019-05-03T13:43:15.027Z,4.17
2019-05-03T13:45:45.011Z,4.00
2019-05-03T13:48:15.555Z,4.33
2019-05-03T13:50:44.600Z,3.73
2019-05-03T13:53:13.244Z,3.07
2019-05-03T13:55:41.746Z,3.40
2019-05-03T13:58:10.272Z,3.60
2019-05-03T14:00:38.727Z,4.10
2019-05-03T14:03:07.146Z,3.40
2019-05-03T14:05:35.663Z,3.60
2019-05-03T14:08:05.088Z,4.23
2019-05-03T14:10:35.828Z,3.20
2019-05-03T14:13:05.608Z,2.60
2019-05-03T14:15:34.821Z,1.70
2019-05-03T14:18:05.618Z,2.20
2019-05-03T14:20:54.948Z,2.50
2019-05-03T14:23:56.162Z,1.90
2019-05-03T14:26:24.745Z,2.37
2019-05-03T14:28:54.885Z,2.77
2019-05-03T14:31:25.243Z,2.40
2019-05-03T14:33:55.601Z,2.53
2019-05-03T14:36:25.065Z,3.00
2019-05-03T14:38:54.927Z,2.37
2019-05-03T14:41:25.453Z,2.70
2019-05-03T14:43:55.695Z,3.60
2019-05-03T14:46:32.671Z,2.80
2019-05-03T14:48:54.991Z,3.23
2019-05-03T14:51:25.225Z,4.90
2019-05-03T14:53:54.297Z,4.70
2019-05-03T14:56:28.722Z,2.90
2019-05-03T14:59:07.612Z,2.27
2019-05-03T15:01:37.754Z,2.17
2019-05-03T15:04:06.402Z,1.90
2019-05-03T15:06:35.446Z,1.90
2019-05-03T15:09:05.804Z,2.70
2019-05-03T15:11:34.573Z,2.23
2019-05-03T15:14:05.490Z,2.70
2019-05-03T15:16:34.382Z,2.40
2019-05-03T15:19:02.859Z,2.43
2019-05-03T15:21:31.301Z,2.67
2019-05-03T15:23:59.834Z,3.60
2019-05-03T15:26:28.280Z,3.20
2019-05-03T15:28:56.705Z,3.77
2019-05-03T15:31:25.240Z,3.90
2019-05-03T15:33:55.495Z,4.20
2019-05-03T15:36:23.996Z,3.57
2019-05-03T15:38:52.454Z,4.63
2019-05-03T15:41:20.887Z,5.83
2019-05-03T15:43:51.148Z,5.90
2019-05-03T15:46:33.312Z,4.50
2019-05-03T15:49:04.577Z,4.13
2019-05-03T15:51:33.264Z,4.17
2019-05-03T15:54:01.724Z,4.27
2019-05-03T15:56:30.142Z,4.80
2019-05-03T15:58:58.969Z,4.50
2019-05-03T16:01:27.471Z,4.30
2019-05-03T16:03:55.948Z,4.07
2019-05-03T16:06:24.845Z,4.33
2019-05-03T16:08:55.211Z,3.77
2019-05-03T16:11:25.300Z,3.70
2019-05-03T16:13:55.354Z,3.70
2019-05-03T16:16:24.822Z,3.90
2019-05-03T16:18:53.530Z,3.30
2019-05-03T16:21:22.020Z,3.60
2019-05-03T16:23:50.451Z,3.30
2019-05-03T16:26:18.912Z,3.90
2019-05-03T16:28:48.989Z,3.20
2019-05-03T16:31:19.164Z,3.57
2019-05-03T16:33:47.609Z,4.70
2019-05-03T16:36:16.153Z,4.23
2019-05-03T16:38:45.047Z,4.60
2019-05-03T16:41:17.513Z,4.00
2019-05-03T16:43:45.601Z,4.20
2019-05-03T16:46:14.553Z,5.00
2019-05-03T16:48:44.876Z,3.83
2019-05-03T16:51:15.133Z,4.40
2019-05-03T16:53:44.472Z,4.17
2019-05-03T16:56:16.544Z,3.93
2019-05-03T16:58:44.636Z,4.60
2019-05-03T17:01:15.955Z,4.33
2019-05-03T17:03:45.692Z,4.43
2019-05-03T17:06:34.880Z,4.07
2019-05-03T17:09:06.070Z,4.50
2019-05-03T17:11:34.764Z,3.97
2019-05-03T17:14:05.034Z,4.13
2019-05-03T17:16:34.461Z,4.30
2019-05-03T17:19:02.942Z,4.13
2019-05-03T17:21:31.466Z,3.90
2019-05-03T17:23:59.959Z,4.77
2019-05-03T17:26:28.496Z,4.60
2019-05-03T17:28:56.923Z,4.23
2019-05-03T17:31:25.473Z,4.27
2019-05-03T17:33:56.682Z,4.13
2019-05-03T17:36:25.081Z,4.30
2019-05-03T17:38:55.224Z,4.20
2019-05-03T17:41:25.675Z,3.93
2019-05-03T17:43:55.818Z,4.30
2019-05-03T17:46:25.512Z,3.13
2019-05-03T17:48:54.756Z,3.70
2019-05-03T17:51:42.588Z,3.60
2019-05-03T17:54:14.487Z,3.17
2019-05-03T17:56:56.509Z,3.67
2019-05-03T17:59:38.451Z,3.50
2019-05-03T18:02:23.681Z,3.70
2019-05-03T18:05:10.304Z,3.17
2019-05-03T18:07:45.272Z,3.50
2019-05-03T18:10:15.158Z,3.83
2019-05-03T18:12:45.262Z,3.43
2019-05-03T18:15:14.757Z,5.70
2019-05-03T18:17:44.482Z,3.90
2019-05-03T18:20:14.946Z,3.87
2019-05-03T18:22:43.300Z,4.43
2019-05-03T18:25:11.936Z,3.10
2019-05-03T18:27:40.446Z,3.13
2019-05-03T18:30:09.142Z,3.27
2019-05-03T18:32:37.586Z,3.20
2019-05-03T18:35:06.622Z,2.83
2019-05-03T18:37:35.149Z,3.10
2019-05-03T18:40:05.038Z,3.17
2019-05-03T18:42:35.337Z,3.17
2019-05-03T18:45:07.010Z,3.20
2019-05-03T18:47:35.481Z,3.40
2019-05-03T18:50:06.012Z,2.83
2019-05-03T18:52:34.561Z,3.27
2019-05-03T18:55:04.617Z,2.70
2019-05-03T18:57:33.188Z,3.80
2019-05-03T19:00:01.786Z,4.27
2019-05-03T19:02:30.268Z,4.20
2019-05-03T19:04:58.808Z,10.63
2019-05-03T19:07:40.641Z,6.10
2019-05-03T19:10:16.984Z,3.83
2019-05-03T19:12:49.871Z,3.70
2019-05-03T19:15:18.415Z,3.93
2019-05-03T19:17:48.482Z,4.20
2019-05-03T19:20:18.110Z,5.37
2019-05-03T19:22:46.603Z,3.97
2019-05-03T19:25:15.122Z,3.97
2019-05-03T19:27:45.125Z,4.60
2019-05-03T19:30:14.853Z,3.90
2019-05-03T19:32:45.045Z,4.33
2019-05-03T19:35:15.559Z,4.40
2019-05-03T19:37:46.363Z,4.27
2019-05-03T19:40:14.714Z,4.70
2019-05-03T19:42:44.761Z,4.20
2019-05-03T19:45:15.171Z,4.77
2019-05-03T19:47:44.731Z,4.37
2019-05-03T19:50:15.524Z,4.17
2019-05-03T19:52:51.269Z,3.70
2019-05-03T19:55:19.714Z,4.53
2019-05-03T19:57:48.152Z,4.47
2019-05-03T20:00:17.269Z,3.83
2019-05-03T20:02:47.327Z,4.07
2019-05-03T20:05:20.225Z,4.10
2019-05-03T20:08:08.175Z,3.63
2019-05-03T20:10:36.724Z,4.03
2019-05-03T20:13:05.155Z,3.70
2019-05-03T20:15:33.678Z,7.30
2019-05-03T20:18:02.174Z,8.50
2019-05-03T20:20:30.647Z,7.40
2019-05-03T20:22:59.284Z,5.10
2019-05-03T20:25:27.691Z,5.70
2019-05-03T20:27:56.175Z,5.50
2019-05-03T20:30:25.451Z,4.80
2019-05-03T20:32:55.536Z,4.60
2019-05-03T20:35:25.181Z,5.13
2019-05-03T20:37:55.387Z,5.13
2019-05-03T20:40:25.620Z,4.50
2019-05-03T20:42:58.881Z,4.00
2019-05-03T20:45:44.569Z,5.93
2019-05-03T20:48:14.725Z,8.57
2019-05-03T20:50:44.748Z,9.10
2019-05-03T20:53:13.313Z,7.40
2019-05-03T20:55:41.735Z,5.80
2019-05-03T20:58:11.456Z,7.47
2019-05-03T21:00:40.026Z,7.43
2019-05-03T21:03:08.481Z,6.93
2019-05-03T21:05:37.447Z,6.17
2019-05-03T21:08:06.130Z,6.40
2019-05-03T21:10:34.587Z,5.77
2019-05-03T21:13:05.284Z,4.73
2019-05-03T21:15:35.501Z,5.00
2019-05-03T21:18:05.738Z,4.60
2019-05-03T21:20:38.521Z,5.10
2019-05-03T21:23:14.767Z,5.13
2019-05-03T21:26:03.624Z,5.43
2019-05-03T21:28:16.154Z,6.03
2019-05-03T21:30:45.445Z,5.83
2019-05-03T21:33:15.657Z,6.73
2019-05-03T21:35:45.226Z,5.00
2019-05-03T21:38:13.873Z,6.30
2019-05-03T21:40:42.321Z,5.80
2019-05-03T21:43:10.780Z,5.97
2019-05-03T21:45:40.847Z,5.63
2019-05-03T21:48:14.642Z,7.67
2019-05-03T21:50:44.646Z,6.90
2019-05-03T21:53:14.771Z,6.40
2019-05-03T21:55:44.785Z,7.13
2019-05-03T21:58:16.030Z,6.10
2019-05-03T22:00:45.482Z,6.80
2019-05-03T22:03:14.592Z,5.90
2019-05-03T22:05:54.410Z,6.50
2019-05-03T22:08:13.489Z,6.63
2019-05-03T22:10:41.966Z,5.80
2019-05-03T22:13:10.672Z,6.10
2019-05-03T22:15:46.836Z,6.20
2019-05-03T22:18:16.898Z,5.90
2019-05-03T22:20:49.839Z,6.37
2019-05-03T22:23:31.465Z,5.50
2019-05-03T22:26:01.576Z,6.30
2019-05-03T22:28:30.016Z,5.20
2019-05-03T22:30:58.454Z,5.43
2019-05-03T22:33:26.865Z,4.20
2019-05-03T22:36:07.829Z,3.90
2019-05-03T22:38:25.519Z,3.93
2019-05-03T22:40:55.323Z,3.37
2019-05-03T22:43:25.349Z,3.70
2019-05-03T22:45:54.801Z,3.50
2019-05-03T22:48:25.097Z,4.23
2019-05-03T22:50:55.586Z,4.03
2019-05-03T22:53:25.357Z,3.60
2019-05-03T22:55:54.339Z,3.63
2019-05-03T22:58:24.723Z,3.67
2019-05-03T23:00:54.935Z,3.30
2019-05-03T23:03:24.873Z,3.30
2019-05-03T23:05:54.800Z,3.60
2019-05-03T23:08:25.154Z,4.20
2019-05-03T23:10:54.704Z,3.43
2019-05-03T23:13:24.897Z,4.20
2019-05-03T23:15:54.656Z,3.70
2019-05-03T23:18:24.622Z,3.60
2019-05-03T23:21:06.728Z,4.03
2019-05-03T23:23:54.827Z,3.70
2019-05-03T23:26:25.268Z,3.70
2019-05-03T23:28:55.121Z,3.77
2019-05-03T23:31:25.125Z,3.60
2019-05-03T23:33:54.482Z,2.93
2019-05-03T23:36:32.684Z,2.73
2019-05-03T23:38:54.650Z,3.50
2019-05-03T23:41:24.541Z,3.43
2019-05-03T23:43:53.217Z,4.20
2019-05-03T23:46:25.198Z,3.07
2019-05-03T23:48:53.416Z,3.80
2019-05-03T23:51:39.697Z,3.87
2019-05-03T23:54:08.137Z,3.63
2019-05-03T23:56:36.724Z,3.50
2019-05-03T23:59:05.617Z,3.70
